ADDS METAR Data INFO
IDs: Format: Raw Decoded Include TAF

Data at: 0643 UTC 23 Feb 2018

KFFM 230635Z AUTO 07007KT 3SM -SN SCT016 SCT025 OVC090 M07/M08 A3015 RMK AO2
KFFM 230615Z AUTO 08007KT 3SM -SN OVC018 M07/M08 A3017 RMK AO2
KFFM 230555Z AUTO 08006KT 3SM -SN OVC021 M07/M08 A3017 RMK AO2
KFFM 230535Z AUTO 08007KT 3SM -SN BKN016 OVC021 M07/M08 A3018 RMK AO2
KFFM 230515Z AUTO 09007KT 2SM -SN OVC016 M06/M08 A3019 RMK AO2
KFFM 230455Z AUTO 09006KT 1 3/4SM -SN BKN006 OVC014 M06/M08 A3020 RMK AO2 P0001
KFFM 230435Z AUTO 10005KT 1 1/4SM -SN OVC006 M06/M08 A3021 RMK AO2 P0001
KFFM 230415Z AUTO 11006KT 1 1/2SM -SN BKN008 BKN012 OVC021 M06/M08 A3022 RMK AO2
KFFM 230355Z AUTO 08009KT 2SM -SN BKN014 BKN025 OVC032 M07/M08 A3023 RMK AO2
KFFM 230335Z AUTO 10005G08KT 2SM -SN BKN007 OVC016 M07/M08 A3024 RMK AO2
KFFM 230315Z AUTO 08009KT 1 1/2SM -SN OVC005 M07/M08 A3023 RMK AO2
KFFM 230255Z AUTO 08008KT 1 1/4SM -SN OVC005 M07/M08 A3024 RMK AO2
KFFM 230235Z AUTO 09006KT 1 1/4SM -SN OVC005 M07/M08 A3025 RMK AO2
KFFM 230215Z AUTO 09005KT 1 1/4SM -SN OVC005 M06/M08 A3026 RMK AO2
KFFM 230155Z AUTO 09008KT 1 1/2SM -SN OVC008 M06/M08 A3026 RMK AO2
KFFM 230135Z AUTO 09006KT 2 1/2SM -SN OVC014 M06/M08 A3027 RMK AO2
KFFM 230115Z AUTO 09009KT 2 1/2SM -SN BKN012 OVC024 M06/M08 A3027 RMK AO2
KFFM 230055Z AUTO 09006KT 2 1/2SM -SN BKN017 OVC024 M06/M08 A3028 RMK AO2
KFFM 230035Z AUTO 10005KT 2 1/2SM -SN OVC017 M06/M08 A3029 RMK AO2
KFFM 230015Z AUTO 11010KT 4SM -SN BKN019 BKN024 M06/M09 A3030 RMK AO2
KFFM 222355Z AUTO 12006KT 7SM SCT023 BKN035 M05/M11 A3031 RMK AO2
KFFM 222335Z AUTO 11006KT 10SM BKN033 M04/M12 A3030 RMK AO2
KFFM 222315Z AUTO 11010KT 10SM SCT026 BKN031 BKN040 M04/M12 A3032 RMK AO2
KFFM 222255Z AUTO 11008KT 10SM BKN026 OVC031 M04/M12 A3032 RMK AO2
KFFM 222235Z AUTO 11005KT 10SM BKN028 OVC034 M04/M12 A3032 RMK AO2
KFFM 222215Z AUTO 12008KT 10SM SCT028 OVC034 M04/M12 A3033 RMK AO2
KFFM 222155Z AUTO 11007KT 10SM SCT028 BKN038 OVC046 M04/M12 A3034 RMK AO2
KFFM 222135Z AUTO 13007KT 10SM SCT028 BKN044 OVC060 M04/M11 A3035 RMK AO2
KFFM 222115Z AUTO 13006KT 10SM BKN039 BKN049 OVC060 M05/M11 A3035 RMK AO2
KFFM 222055Z AUTO 14008KT 10SM BKN034 OVC060 M06/M11 A3038 RMK AO2
KFFM 222035Z AUTO 16010KT 10SM SCT030 OVC038 M06/M11 A3039 RMK AO2
KFFM 222015Z AUTO 16009KT 10SM SCT031 BKN039 OVC060 M06/M11 A3040 RMK AO2
KFFM 221955Z AUTO 17011KT 10SM SCT047 OVC060 M06/M11 A3041 RMK AO2
KFFM 221935Z AUTO 17012G15KT 10SM OVC050 M07/M12 A3042 RMK AO2
KFFM 221915Z AUTO 17012KT 10SM OVC050 M07/M12 A3042 RMK AO2
KFFM 221855Z AUTO 17014KT 10SM OVC050 M07/M12 A3043 RMK AO2
KFFM 221835Z AUTO 17014KT 10SM OVC050 M07/M13 A3044 RMK AO2
KFFM 221815Z AUTO 16015KT 10SM SCT044 OVC050 M07/M13 A3045 RMK AO2
KFFM 221755Z AUTO 16015KT 10SM OVC050 M07/M13 A3046 RMK AO2
KFFM 221735Z AUTO 16014KT 10SM OVC050 M08/M13 A3046 RMK AO2
KFFM 221715Z AUTO 17016KT 10SM SCT036 OVC055 M08/M13 A3047 RMK AO2
KFFM 221655Z AUTO 16015KT 10SM OVC055 M08/M13 A3048 RMK AO2
KFFM 221635Z AUTO 16016KT 10SM BKN055 M09/M14 A3048 RMK AO2
KFFM 221615Z AUTO 16013KT 10SM SCT055 M11/M15 A3049 RMK AO2
KFFM 221555Z AUTO 16012KT 10SM CLR M11/M16 A3049 RMK AO2
KFFM 221535Z AUTO 15011KT 10SM CLR M11/M16 A3049 RMK AO2
KFFM 221515Z AUTO 16010KT 10SM CLR M12/M17 A3049 RMK AO2
KFFM 221455Z AUTO 16011KT 10SM CLR M12/M17 A3049 RMK AO2
KFFM 221435Z AUTO 16013G17KT 10SM CLR M13/M17 A3049 RMK AO2
KFFM 221415Z AUTO 15012KT 10SM CLR M13/M17 A3048 RMK AO2
KFFM 221355Z AUTO 15013KT 10SM CLR M13/M17 A3048 RMK AO2
KFFM 221335Z AUTO 15013KT 10SM CLR M13/M17 A3048 RMK AO2
KFFM 221315Z AUTO 15012G16KT 10SM CLR M13/M18 A3048 RMK AO2
KFFM 221255Z AUTO 15012KT 10SM CLR M13/M18 A3048 RMK AO2
KFFM 221235Z AUTO 13013KT 10SM CLR M13/M18 A3046 RMK AO2
KFFM 221215Z AUTO 13011KT 10SM CLR M13/M17 A3047 RMK AO2
KFFM 221155Z AUTO 14012KT 10SM CLR M13/M17 A3048 RMK AO2
KFFM 221135Z AUTO 14016KT 10SM CLR M13/M17 A3048 RMK AO2
KFFM 221115Z AUTO 15014KT 10SM CLR M14/M18 A3049 RMK AO2
KFFM 221055Z AUTO 13010KT 10SM CLR M14/M19 A3050 RMK AO2
KFFM 221035Z AUTO 14011KT 10SM CLR M14/M19 A3050 RMK AO2
KFFM 221015Z AUTO 13011KT 10SM CLR M14/M18 A3051 RMK AO2
KFFM 220955Z AUTO 14009KT 10SM CLR M14/M18 A3051 RMK AO2
KFFM 220935Z AUTO 15009KT 10SM CLR M14/M18 A3052 RMK AO2
KFFM 220915Z AUTO 15007KT 10SM CLR M15/M19 A3053 RMK AO2
KFFM 220855Z AUTO 15007KT 10SM CLR M16/M19 A3053 RMK AO2
KFFM 220835Z AUTO 16008KT 10SM CLR M16/M19 A3054 RMK AO2
KFFM 220815Z AUTO 15007KT 10SM CLR M16/M19 A3054 RMK AO2
KFFM 220755Z AUTO 14007KT 10SM CLR M15/M19 A3054 RMK AO2
KFFM 220735Z AUTO 13006KT 10SM CLR M15/M19 A3054 RMK AO2
KFFM 220715Z AUTO 14006KT 10SM CLR M15/M19 A3054 RMK AO2
KFFM 220655Z AUTO 14006KT 10SM CLR M15/M19 A3055 RMK AO2
KFFM 220635Z AUTO 15008KT 10SM CLR M16/M19 A3055 RMK AO2
KFFM 220615Z AUTO 14008KT 10SM CLR M15/M19 A3055 RMK AO2
KFFM 220555Z AUTO 14007KT 10SM CLR M16/M19 A3057 RMK AO2
KFFM 220535Z AUTO 15007KT 10SM CLR M16/M19 A3057 RMK AO2
KFFM 220515Z AUTO 14007KT 10SM CLR M16/M19 A3057 RMK AO2
KFFM 220455Z AUTO 14006KT 10SM CLR M15/M19 A3057 RMK AO2
KFFM 220435Z AUTO 14007KT 10SM CLR M16/M19 A3057 RMK AO2
KFFM 220415Z AUTO 14005KT 10SM CLR M14/M18 A3057 RMK AO2
KFFM 220355Z AUTO 14005KT 10SM CLR M14/M19 A3057 RMK AO2
KFFM 220035Z AUTO 15004KT 10SM CLR M12/M18 A3056 RMK AO2
KFFM 220015Z AUTO 16005KT 10SM CLR M13/M19 A3056 RMK AO2
KFFM 212355Z AUTO 16005KT 10SM CLR M13/M18 A3055 RMK AO2
KFFM 212335Z AUTO 17004KT 10SM CLR M12/M18 A3055 RMK AO2
KFFM 212315Z AUTO 18005KT 10SM CLR M12/M17 A3056 RMK AO2
KFFM 212255Z AUTO 19006KT 10SM CLR M11/M17 A3056 RMK AO2
KFFM 212235Z AUTO 18006KT 10SM CLR M11/M18 A3056 RMK AO2
KFFM 212215Z AUTO 21007KT 10SM CLR M11/M17 A3056 RMK AO2
KFFM 212155Z AUTO 19007KT 10SM CLR M11/M18 A3056 RMK AO2
KFFM 212135Z AUTO 18009KT 10SM CLR M11/M18 A3056 RMK AO2
KFFM 212115Z AUTO 16008KT 10SM CLR M11/M17 A3056 RMK AO2
KFFM 212055Z AUTO 16008KT 10SM CLR M11/M18 A3055 RMK AO2
KFFM 212035Z AUTO 17007KT 10SM CLR M12/M18 A3055 RMK AO2
KFFM 212015Z AUTO 18006KT 10SM CLR M12/M19 A3055 RMK AO2
KFFM 211955Z AUTO 17007KT 10SM CLR M12/M19 A3056 RMK AO2
KFFM 211935Z AUTO 18008KT 10SM CLR M12/M18 A3057 RMK AO2
KFFM 211915Z AUTO 17005KT 10SM CLR M13/M19 A3056 RMK AO2
KFFM 211855Z AUTO 20005KT 10SM CLR M13/M19 A3057 RMK AO2